Time;durP1;ratioP1;P1;durP2;ratioP2;P2;SDS_P1;SDS_P2;PMS_P1;PMS_P2;Temp;Humidity;BMP_temperature;BMP_pressure;BME280_temperature;BME280_humidity;BME280_pressure;Samples;Min_cycle;Max_cycle;Signal;HPM_P1;HPM_P2
2021/07/10 00:00:33;;;;;;;7.07;6.18;;;;;;;;;;3583576;40;20032;-68
2021/07/10 00:03:00;;;;;;;7.97;6.28;;;;;;;;;;3583302;40;20032;-67
2021/07/10 00:05:25;;;;;;;6.25;5.63;;;;;;;;;;3584541;40;20044;-67
2021/07/10 00:07:51;;;;;;;6.47;5.25;;;;;;;;;;3572276;40;20040;-67
2021/07/10 00:10:18;;;;;;;6.40;5.50;;;;;;;;;;3583310;40;20043;-67
2021/07/10 00:12:43;;;;;;;8.90;6.07;;;;;;;;;;3583909;40;20047;-67
2021/07/10 00:15:11;;;;;;;6.68;5.65;;;;;;;;;;3580763;40;20041;-68
2021/07/10 00:17:37;;;;;;;8.45;5.85;;;;;;;;;;3581757;40;20041;-67
2021/07/10 00:20:08;;;;;;;8.50;5.40;;;;;;;;;;3581576;40;20055;-67
2021/07/10 00:22:33;;;;;;;6.70;5.25;;;;;;;;;;3583021;40;20096;-68
2021/07/10 00:25:00;;;;;;;7.32;5.85;;;;;;;;;;3582315;40;20041;-68
2021/07/10 00:27:25;;;;;;;5.95;5.35;;;;;;;;;;3580745;40;20033;-68
2021/07/10 00:29:51;;;;;;;7.70;5.65;;;;;;;;;;3580407;40;20045;-68
2021/07/10 00:32:16;;;;;;;6.18;5.57;;;;;;;;;;3582119;40;20072;-68
2021/07/10 00:34:41;;;;;;;6.53;5.88;;;;;;;;;;3583018;40;20037;-67
2021/07/10 00:37:07;;;;;;;10.00;7.30;;;;;;;;;;3582599;40;20066;-68
2021/07/10 00:39:32;;;;;;;7.88;6.80;;;;;;;;;;3584035;40;20036;-68
2021/07/10 00:41:58;;;;;;;9.35;6.80;;;;;;;;;;3573733;40;20094;-68
2021/07/10 00:44:23;;;;;;;11.38;7.63;;;;;;;;;;3583626;40;20044;-68
2021/07/10 00:46:49;;;;;;;8.73;7.40;;;;;;;;;;3576523;40;20057;-67
2021/07/10 00:49:14;;;;;;;7.88;7.07;;;;;;;;;;3582033;40;20047;-68
2021/07/10 00:51:39;;;;;;;8.82;8.00;;;;;;;;;;3581812;40;20057;-68
2021/07/10 00:54:05;;;;;;;10.68;6.60;;;;;;;;;;3583643;40;20077;-68
2021/07/10 00:56:31;;;;;;;8.68;7.13;;;;;;;;;;3582472;40;20045;-68
2021/07/10 00:58:57;;;;;;;11.48;6.95;;;;;;;;;;3582718;40;20276;-68
2021/07/10 01:01:23;;;;;;;6.93;5.95;;;;;;;;;;3581570;40;20072;-68
2021/07/10 01:03:49;;;;;;;6.47;5.88;;;;;;;;;;3581433;40;20055;-68
2021/07/10 01:06:14;;;;;;;12.25;6.15;;;;;;;;;;3583981;40;20486;-68
2021/07/10 01:08:41;;;;;;;7.05;6.32;;;;;;;;;;3582342;40;20295;-68
2021/07/10 01:11:08;;;;;;;8.73;6.78;;;;;;;;;;3582863;40;20431;-68
2021/07/10 01:13:33;;;;;;;10.43;6.45;;;;;;;;;;3583825;40;20396;-68
2021/07/10 01:15:59;;;;;;;6.80;6.13;;;;;;;;;;3584810;40;20044;-68
2021/07/10 01:18:25;;;;;;;8.57;6.22;;;;;;;;;;3577694;40;20056;-68
2021/07/10 01:20:54;;;;;;;10.35;6.28;;;;;;;;;;3587319;40;20899;-68
2021/07/10 01:23:21;;;;;;;6.50;5.60;;;;;;;;;;3585046;40;20052;-68
2021/07/10 01:25:46;;;;;;;11.35;6.60;;;;;;;;;;3585295;40;20037;-68
2021/07/10 01:28:13;;;;;;;11.30;6.20;;;;;;;;;;3585876;40;20336;-68
2021/07/10 01:30:40;;;;;;;9.63;7.05;;;;;;;;;;3584998;40;20512;-68
2021/07/10 01:33:06;;;;;;;8.98;6.50;;;;;;;;;;3584895;40;20063;-68
2021/07/10 01:35:32;;;;;;;7.93;6.38;;;;;;;;;;3584242;40;20507;-68
2021/07/10 01:37:59;;;;;;;11.32;6.90;;;;;;;;;;3585212;40;20389;-68
2021/07/10 01:40:26;;;;;;;7.93;6.75;;;;;;;;;;3585541;40;20049;-68
2021/07/10 01:42:52;;;;;;;16.48;6.60;;;;;;;;;;3585591;40;20542;-67
2021/07/10 01:45:20;;;;;;;9.95;7.05;;;;;;;;;;3584214;40;20098;-68
2021/07/10 01:47:50;;;;;;;9.43;5.43;;;;;;;;;;3581980;40;20043;-68
2021/07/10 01:50:15;;;;;;;8.65;6.82;;;;;;;;;;3585075;40;20081;-67
2021/07/10 01:52:42;;;;;;;15.32;6.95;;;;;;;;;;3583647;40;20622;-68
2021/07/10 01:55:09;;;;;;;9.98;6.00;;;;;;;;;;3585608;40;20114;-68
2021/07/10 01:57:38;;;;;;;8.45;5.30;;;;;;;;;;3582682;40;20067;-67
2021/07/10 02:00:12;;;;;;;10.23;5.75;;;;;;;;;;3583265;40;20721;-68
2021/07/10 02:02:39;;;;;;;6.80;5.47;;;;;;;;;;3588081;40;20056;-68
2021/07/10 02:05:06;;;;;;;6.72;6.03;;;;;;;;;;3585621;40;20048;-68
2021/07/10 02:07:31;;;;;;;6.07;4.50;;;;;;;;;;3585428;40;20073;-68
2021/07/10 02:09:57;;;;;;;5.45;4.50;;;;;;;;;;3584837;40;20037;-67
2021/07/10 02:12:22;;;;;;;4.88;4.38;;;;;;;;;;3584492;40;20371;-67
2021/07/10 02:14:48;;;;;;;6.53;4.78;;;;;;;;;;3586235;40;20033;-68
2021/07/10 02:17:13;;;;;;;4.78;4.28;;;;;;;;;;3585964;40;20035;-68
2021/07/10 02:19:39;;;;;;;7.18;5.03;;;;;;;;;;3584276;40;20029;-68
2021/07/10 02:22:05;;;;;;;6.10;5.30;;;;;;;;;;3584877;40;20400;-68
2021/07/10 02:24:31;;;;;;;7.82;5.82;;;;;;;;;;3580817;40;20045;-67
2021/07/10 02:26:57;;;;;;;7.47;5.68;;;;;;;;;;3582241;40;20139;-68
2021/07/10 02:29:23;;;;;;;6.00;5.38;;;;;;;;;;3583212;40;20556;-68
2021/07/10 02:31:48;;;;;;;6.30;5.32;;;;;;;;;;3583325;40;20036;-67
2021/07/10 02:34:14;;;;;;;6.93;5.03;;;;;;;;;;3584274;40;20131;-67
2021/07/10 02:36:40;;;;;;;6.93;5.72;;;;;;;;;;3583795;40;20268;-67
2021/07/10 02:39:05;;;;;;;6.35;5.75;;;;;;;;;;3583287;40;20365;-68
2021/07/10 02:41:31;;;;;;;6.90;5.80;;;;;;;;;;3580916;40;20033;-68
2021/07/10 02:43:57;;;;;;;6.35;5.38;;;;;;;;;;3582901;40;20037;-67
2021/07/10 02:46:22;;;;;;;6.38;5.45;;;;;;;;;;3583920;40;20037;-67
2021/07/10 02:48:48;;;;;;;8.07;5.22;;;;;;;;;;3583539;40;20057;-68
2021/07/10 02:51:14;;;;;;;6.35;5.43;;;;;;;;;;3581807;40;20037;-67
2021/07/10 02:53:40;;;;;;;6.28;5.03;;;;;;;;;;3573781;40;20044;-67
2021/07/10 02:56:05;;;;;;;7.88;4.78;;;;;;;;;;3581871;40;20523;-67
2021/07/10 02:58:31;;;;;;;5.90;4.78;;;;;;;;;;3583532;40;20069;-67
2021/07/10 03:00:57;;;;;;;5.07;4.40;;;;;;;;;;3582547;40;20048;-67
2021/07/10 03:03:22;;;;;;;6.70;4.72;;;;;;;;;;3580901;40;20041;-67
2021/07/10 03:05:48;;;;;;;5.60;4.55;;;;;;;;;;3583960;40;20072;-67
2021/07/10 03:08:14;;;;;;;5.63;4.40;;;;;;;;;;3584261;40;20040;-67
2021/07/10 03:10:42;;;;;;;5.25;4.75;;;;;;;;;;3582714;40;20033;-67
2021/07/10 03:13:07;;;;;;;5.53;4.95;;;;;;;;;;3582822;40;20048;-67
2021/07/10 03:15:33;;;;;;;6.25;5.65;;;;;;;;;;3582835;40;20040;-67
2021/07/10 03:17:59;;;;;;;5.38;4.88;;;;;;;;;;3583587;40;20371;-67
2021/07/10 03:20:26;;;;;;;6.20;5.60;;;;;;;;;;3582983;40;20040;-67
2021/07/10 03:22:52;;;;;;;6.00;5.18;;;;;;;;;;3580820;40;20387;-67
2021/07/10 03:25:18;;;;;;;9.07;6.20;;;;;;;;;;3585148;40;20039;-67
2021/07/10 03:27:46;;;;;;;8.55;6.43;;;;;;;;;;3583618;40;20028;-67
2021/07/10 03:30:15;;;;;;;9.82;5.93;;;;;;;;;;3583414;40;20125;-67
2021/07/10 03:32:41;;;;;;;8.73;6.43;;;;;;;;;;3582891;40;20028;-67
2021/07/10 03:35:08;;;;;;;6.82;6.10;;;;;;;;;;3581879;40;20053;-67
2021/07/10 03:37:34;;;;;;;7.38;6.25;;;;;;;;;;3581649;40;20590;-67
2021/07/10 03:40:00;;;;;;;8.02;6.03;;;;;;;;;;3582401;40;20029;-66
2021/07/10 03:42:25;;;;;;;10.45;6.53;;;;;;;;;;3582671;40;20041;-67
2021/07/10 03:44:50;;;;;;;7.15;5.82;;;;;;;;;;3582782;40;20032;-67
2021/07/10 03:47:16;;;;;;;8.68;6.90;;;;;;;;;;3580182;40;20300;-67
2021/07/10 03:49:42;;;;;;;13.57;6.90;;;;;;;;;;3582198;40;20044;-67
2021/07/10 03:52:07;;;;;;;9.68;7.15;;;;;;;;;;3582091;40;20138;-67
2021/07/10 03:54:33;;;;;;;8.18;6.95;;;;;;;;;;3582587;40;20799;-67
2021/07/10 03:56:58;;;;;;;12.02;7.45;;;;;;;;;;3582127;40;20383;-67
2021/07/10 03:59:24;;;;;;;10.88;7.30;;;;;;;;;;3581952;40;20319;-67
2021/07/10 04:01:49;;;;;;;9.70;7.72;;;;;;;;;;3581177;40;20083;-66
2021/07/10 04:04:15;;;;;;;9.68;6.72;;;;;;;;;;3582301;40;20076;-67
2021/07/10 04:06:41;;;;;;;24.73;7.15;;;;;;;;;;3583528;40;20288;-67
2021/07/10 04:09:07;;;;;;;14.02;7.65;;;;;;;;;;3581338;40;20033;-67
2021/07/10 04:11:33;;;;;;;12.45;7.38;;;;;;;;;;3583016;40;20093;-67
2021/07/10 04:13:58;;;;;;;8.13;7.32;;;;;;;;;;3582293;40;20059;-67
2021/07/10 04:16:24;;;;;;;11.93;8.30;;;;;;;;;;3580943;40;20036;-67
2021/07/10 04:18:50;;;;;;;11.25;7.60;;;;;;;;;;3583492;40;20044;-67
2021/07/10 04:21:16;;;;;;;12.63;8.30;;;;;;;;;;3582349;40;20068;-66
2021/07/10 04:23:42;;;;;;;11.23;8.20;;;;;;;;;;3576659;40;20035;-66
2021/07/10 04:26:07;;;;;;;9.05;7.45;;;;;;;;;;3581795;40;20033;-67
2021/07/10 04:28:33;;;;;;;16.60;8.63;;;;;;;;;;3583339;40;20376;-67
2021/07/10 04:30:58;;;;;;;9.27;8.32;;;;;;;;;;3581425;40;20079;-66
2021/07/10 04:33:24;;;;;;;9.88;8.55;;;;;;;;;;3581769;40;20094;-66
2021/07/10 04:35:49;;;;;;;9.27;8.40;;;;;;;;;;3583628;40;20037;-66
2021/07/10 04:38:15;;;;;;;11.32;9.82;;;;;;;;;;3582827;40;20040;-66
2021/07/10 04:40:41;;;;;;;11.05;9.63;;;;;;;;;;3583005;40;20433;-65
2021/07/10 04:43:09;;;;;;;11.20;9.82;;;;;;;;;;3582583;40;20053;-65
2021/07/10 04:45:35;;;;;;;12.30;9.30;;;;;;;;;;3582012;40;20115;-65
2021/07/10 04:48:01;;;;;;;12.65;10.07;;;;;;;;;;3583459;40;20608;-65
2021/07/10 04:50:26;;;;;;;10.38;9.27;;;;;;;;;;3583974;40;20052;-65
2021/07/10 04:52:52;;;;;;;10.55;9.60;;;;;;;;;;3582984;40;20636;-65
2021/07/10 04:55:18;;;;;;;13.48;9.48;;;;;;;;;;3583732;40;20372;-65
2021/07/10 04:57:46;;;;;;;14.98;9.90;;;;;;;;;;3583120;40;20040;-65
2021/07/10 05:00:13;;;;;;;13.70;10.00;;;;;;;;;;3581285;40;20037;-65
2021/07/10 05:02:39;;;;;;;13.35;9.85;;;;;;;;;;3580119;40;20029;-65
2021/07/10 05:05:05;;;;;;;11.25;10.07;;;;;;;;;;3579621;40;20041;-65
2021/07/10 05:07:31;;;;;;;12.65;10.48;;;;;;;;;;3583892;40;20037;-64
2021/07/10 05:09:56;;;;;;;11.35;10.18;;;;;;;;;;3584370;40;20044;-64
2021/07/10 05:12:22;;;;;;;14.25;10.85;;;;;;;;;;3581956;40;20376;-64
2021/07/10 05:14:52;;;;;;;11.00;9.90;;;;;;;;;;3576605;40;20483;-64
2021/07/10 05:17:19;;;;;;;11.48;10.27;;;;;;;;;;3583027;40;20036;-64
2021/07/10 05:19:45;;;;;;;13.73;10.10;;;;;;;;;;3581786;40;20040;-64
2021/07/10 05:22:12;;;;;;;11.23;10.13;;;;;;;;;;3581896;40;20038;-64
2021/07/10 05:24:38;;;;;;;11.70;9.93;;;;;;;;;;3580388;40;20040;-64
2021/07/10 05:27:04;;;;;;;14.48;9.68;;;;;;;;;;3580799;40;20035;-64
2021/07/10 05:29:30;;;;;;;12.07;10.90;;;;;;;;;;3584145;40;20088;-64
2021/07/10 05:31:55;;;;;;;12.93;10.85;;;;;;;;;;3582235;40;20264;-64
2021/07/10 05:34:21;;;;;;;14.10;11.02;;;;;;;;;;3582887;40;20513;-64
2021/07/10 05:36:47;;;;;;;13.07;11.57;;;;;;;;;;3582967;40;20093;-64
2021/07/10 05:39:13;;;;;;;12.30;10.38;;;;;;;;;;3580134;40;20085;-64
2021/07/10 05:41:39;;;;;;;11.13;9.93;;;;;;;;;;3583525;40;20045;-63
2021/07/10 05:44:04;;;;;;;12.57;10.98;;;;;;;;;;3583791;40;20039;-64
2021/07/10 05:46:30;;;;;;;13.30;9.50;;;;;;;;;;3580648;40;20044;-63
2021/07/10 05:48:55;;;;;;;19.33;11.05;;;;;;;;;;3581412;40;20370;-64
2021/07/10 05:51:21;;;;;;;13.98;10.65;;;;;;;;;;3582470;40;20296;-63
2021/07/10 05:53:46;;;;;;;15.02;10.13;;;;;;;;;;3583047;40;20064;-63
2021/07/10 05:56:12;;;;;;;16.40;10.18;;;;;;;;;;3582158;40;20040;-64
2021/07/10 05:58:38;;;;;;;13.15;10.00;;;;;;;;;;3581366;40;20057;-64
2021/07/10 06:01:03;;;;;;;12.80;10.55;;;;;;;;;;3578237;40;20105;-64
2021/07/10 06:03:29;;;;;;;14.38;10.43;;;;;;;;;;3584399;40;20033;-63
2021/07/10 06:05:54;;;;;;;12.18;10.75;;;;;;;;;;3584362;40;20052;-63
2021/07/10 06:08:20;;;;;;;12.50;10.60;;;;;;;;;;3581647;40;20075;-63
2021/07/10 06:10:45;;;;;;;19.98;10.98;;;;;;;;;;3584088;40;20051;-64
2021/07/10 06:13:11;;;;;;;15.20;10.85;;;;;;;;;;3584359;40;20045;-64
2021/07/10 06:15:36;;;;;;;19.98;11.50;;;;;;;;;;3582417;40;20033;-64
2021/07/10 06:18:02;;;;;;;10.98;9.88;;;;;;;;;;3583819;40;20052;-63
2021/07/10 06:20:27;;;;;;;12.88;10.18;;;;;;;;;;3583203;40;20044;-64
2021/07/10 06:22:53;;;;;;;12.98;10.63;;;;;;;;;;3584652;40;20052;-63
2021/07/10 06:25:20;;;;;;;12.27;10.13;;;;;;;;;;3583877;40;20036;-64
2021/07/10 06:27:47;;;;;;;16.08;10.43;;;;;;;;;;3585590;40;20032;-65
2021/07/10 06:30:14;;;;;;;12.70;11.32;;;;;;;;;;3585539;40;20041;-64
2021/07/10 06:32:41;;;;;;;12.93;11.65;;;;;;;;;;3576270;40;20376;-64
2021/07/10 06:35:08;;;;;;;14.10;10.77;;;;;;;;;;3585571;40;20353;-64
2021/07/10 06:37:34;;;;;;;12.63;10.60;;;;;;;;;;3576677;40;20384;-64
2021/07/10 06:40:00;;;;;;;12.98;11.57;;;;;;;;;;3585659;40;20033;-64
2021/07/10 06:42:25;;;;;;;13.05;11.70;;;;;;;;;;3585619;40;20036;-64
2021/07/10 06:44:51;;;;;;;14.18;10.10;;;;;;;;;;3582820;40;20028;-63
2021/07/10 06:47:18;;;;;;;13.25;11.90;;;;;;;;;;3583848;40;20028;-63
2021/07/10 06:49:44;;;;;;;16.27;11.48;;;;;;;;;;3584179;40;20127;-63
2021/07/10 06:52:10;;;;;;;16.08;11.55;;;;;;;;;;3583787;40;20364;-63
2021/07/10 06:54:36;;;;;;;13.70;11.82;;;;;;;;;;3581862;40;20024;-63
2021/07/10 06:57:01;;;;;;;16.35;12.43;;;;;;;;;;3584840;40;20037;-63
2021/07/10 06:59:27;;;;;;;15.15;12.57;;;;;;;;;;3584100;40;20134;-63
2021/07/10 07:01:52;;;;;;;14.82;12.73;;;;;;;;;;3583510;40;20041;-63
2021/07/10 07:04:18;;;;;;;15.32;13.80;;;;;;;;;;3577180;40;20133;-63
2021/07/10 07:06:44;;;;;;;15.80;12.52;;;;;;;;;;3585647;40;20092;-63
2021/07/10 07:09:09;;;;;;;13.95;12.55;;;;;;;;;;3584098;39;20145;-62
2021/07/10 07:11:35;;;;;;;14.40;12.82;;;;;;;;;;3584026;40;20117;-63
2021/07/10 07:14:00;;;;;;;14.27;12.85;;;;;;;;;;3582956;40;20060;-63
2021/07/10 07:16:26;;;;;;;15.52;11.95;;;;;;;;;;3582494;40;20083;-63
2021/07/10 07:18:51;;;;;;;14.98;12.23;;;;;;;;;;3584594;40;20046;-62
2021/07/10 07:21:17;;;;;;;14.88;12.68;;;;;;;;;;3575248;40;20360;-62
2021/07/10 07:23:43;;;;;;;13.85;12.35;;;;;;;;;;3581857;40;20029;-62
2021/07/10 07:26:08;;;;;;;14.38;12.88;;;;;;;;;;3582742;40;20047;-63
2021/07/10 07:28:35;;;;;;;13.85;12.18;;;;;;;;;;3582894;40;20032;-62
2021/07/10 07:31:01;;;;;;;15.68;13.45;;;;;;;;;;3584144;40;20574;-64
2021/07/10 07:33:28;;;;;;;16.08;10.75;;;;;;;;;;3583963;40;20037;-63
2021/07/10 07:35:54;;;;;;;13.82;12.48;;;;;;;;;;3582304;40;20060;-63
2021/07/10 07:38:20;;;;;;;15.93;11.77;;;;;;;;;;3582394;40;20373;-63
2021/07/10 07:40:46;;;;;;;13.38;12.02;;;;;;;;;;3584080;40;20024;-62
2021/07/10 07:43:12;;;;;;;13.88;12.43;;;;;;;;;;3583456;40;20397;-63
2021/07/10 07:45:37;;;;;;;14.05;12.18;;;;;;;;;;3582837;40;20033;-62
2021/07/10 07:48:03;;;;;;;15.88;11.73;;;;;;;;;;3582254;40;20048;-63
2021/07/10 07:50:29;;;;;;;13.80;11.52;;;;;;;;;;3583308;40;20106;-63
2021/07/10 07:52:54;;;;;;;13.38;11.95;;;;;;;;;;3576980;40;20052;-63
2021/07/10 07:55:20;;;;;;;13.05;11.75;;;;;;;;;;3583667;40;20048;-63
2021/07/10 07:57:46;;;;;;;12.55;11.25;;;;;;;;;;3581820;40;20051;-63
2021/07/10 08:00:19;;;;;;;16.55;10.45;;;;;;;;;;3582396;40;20035;-63
2021/07/10 08:02:46;;;;;;;13.50;10.32;;;;;;;;;;3583123;40;20028;-63
2021/07/10 08:05:12;;;;;;;12.05;10.05;;;;;;;;;;3583310;40;20043;-63
2021/07/10 08:07:39;;;;;;;10.88;9.57;;;;;;;;;;3581583;40;20032;-63
2021/07/10 08:10:06;;;;;;;11.88;9.95;;;;;;;;;;3581245;40;20025;-63
2021/07/10 08:12:32;;;;;;;11.32;10.07;;;;;;;;;;3573205;40;20121;-63
2021/07/10 08:14:58;;;;;;;12.23;10.18;;;;;;;;;;3581413;40;20063;-63
2021/07/10 08:17:24;;;;;;;12.25;10.23;;;;;;;;;;3581537;40;20369;-63
2021/07/10 08:19:49;;;;;;;13.18;10.57;;;;;;;;;;3581905;40;20040;-63
2021/07/10 08:22:15;;;;;;;11.95;10.45;;;;;;;;;;3581272;40;20817;-62
2021/07/10 08:24:40;;;;;;;10.38;9.30;;;;;;;;;;3584000;40;20775;-63
2021/07/10 08:27:06;;;;;;;11.02;9.45;;;;;;;;;;3583042;40;20056;-62
2021/07/10 08:29:33;;;;;;;11.13;9.85;;;;;;;;;;3576454;40;20052;-65
2021/07/10 08:31:58;;;;;;;11.05;9.45;;;;;;;;;;3573948;40;20138;-62
2021/07/10 08:34:25;;;;;;;12.13;8.75;;;;;;;;;;3583063;40;20049;-62
2021/07/10 08:36:50;;;;;;;10.15;8.70;;;;;;;;;;3583122;40;20391;-62
2021/07/10 08:39:16;;;;;;;8.55;7.47;;;;;;;;;;3583140;40;20040;-63
2021/07/10 08:41:42;;;;;;;9.05;8.10;;;;;;;;;;3583008;40;20033;-62
2021/07/10 08:44:07;;;;;;;12.20;9.27;;;;;;;;;;3582948;40;20036;-62
2021/07/10 08:46:33;;;;;;;13.65;8.57;;;;;;;;;;3582617;40;20044;-62
2021/07/10 08:48:58;;;;;;;10.73;9.02;;;;;;;;;;3581798;40;20521;-63
2021/07/10 08:51:24;;;;;;;11.70;8.90;;;;;;;;;;3580934;40;20287;-62
2021/07/10 08:53:50;;;;;;;9.45;7.60;;;;;;;;;;3582069;40;20045;-63
2021/07/10 08:56:15;;;;;;;10.00;8.77;;;;;;;;;;3582715;40;20045;-64
2021/07/10 08:58:41;;;;;;;10.63;8.13;;;;;;;;;;3581704;40;20029;-64
2021/07/10 09:01:10;;;;;;;9.00;8.00;;;;;;;;;;3583257;40;20373;-62
2021/07/10 09:03:36;;;;;;;8.38;6.35;;;;;;;;;;3580273;40;20033;-63
2021/07/10 09:06:02;;;;;;;10.07;7.80;;;;;;;;;;3582597;40;20126;-64
2021/07/10 09:08:30;;;;;;;8.85;6.75;;;;;;;;;;3581667;40;20371;-63
2021/07/10 09:11:14;;;;;;;10.95;7.75;;;;;;;;;;3581721;40;20385;-63
2021/07/10 09:13:44;;;;;;;12.43;7.60;;;;;;;;;;3582075;40;20033;-62
2021/07/10 09:16:16;;;;;;;12.15;7.55;;;;;;;;;;3580336;40;20478;-62
2021/07/10 09:18:50;;;;;;;8.73;7.47;;;;;;;;;;3581246;40;20036;-63
2021/07/10 09:21:36;;;;;;;7.57;6.45;;;;;;;;;;3582282;40;20381;-62
2021/07/10 09:24:05;;;;;;;7.97;7.07;;;;;;;;;;3580760;40;20048;-63
2021/07/10 09:26:31;;;;;;;8.15;6.70;;;;;;;;;;3581388;40;20048;-62
2021/07/10 09:29:07;;;;;;;10.95;6.97;;;;;;;;;;3581584;40;20032;-63
2021/07/10 09:31:36;;;;;;;10.25;7.55;;;;;;;;;;3582943;40;20122;-62
2021/07/10 09:34:06;;;;;;;8.60;7.53;;;;;;;;;;3583972;40;20052;-62
2021/07/10 09:36:32;;;;;;;8.45;6.75;;;;;;;;;;3581790;40;20035;-62
2021/07/10 09:38:58;;;;;;;8.82;6.50;;;;;;;;;;3581805;40;20048;-62
2021/07/10 09:41:28;;;;;;;7.97;6.90;;;;;;;;;;3582133;40;20106;-62
2021/07/10 09:44:03;;;;;;;;;;;;;;;;;;3583244;40;20055;-64
2021/07/10 09:46:28;;;;;;;10.05;6.88;;;;;;;;;;3577620;40;19932;-63
2021/07/10 09:48:55;;;;;;;8.55;6.05;;;;;;;;;;3585286;40;20051;-63
2021/07/10 09:51:27;;;;;;;8.65;6.13;;;;;;;;;;3585140;40;20048;-63
2021/07/10 09:54:05;;;;;;;8.48;6.30;;;;;;;;;;3582865;40;20044;-63
2021/07/10 09:56:35;;;;;;;12.45;6.82;;;;;;;;;;3583184;40;20476;-63
2021/07/10 09:59:17;;;;;;;6.30;5.45;;;;;;;;;;3582913;40;20045;-64
2021/07/10 10:01:43;;;;;;;9.57;5.57;;;;;;;;;;3582909;40;20188;-63
2021/07/10 10:04:29;;;;;;;6.97;6.28;;;;;;;;;;3585022;40;20297;-63
2021/07/10 10:06:56;;;;;;;7.53;6.25;;;;;;;;;;3584446;40;20044;-63
2021/07/10 10:09:29;;;;;;;5.97;5.35;;;;;;;;;;3577745;40;20043;-63
2021/07/10 10:11:54;;;;;;;6.63;5.57;;;;;;;;;;3583356;40;20060;-64
2021/07/10 10:14:20;;;;;;;7.85;6.55;;;;;;;;;;3584166;40;20121;-64
2021/07/10 10:16:46;;;;;;;10.23;6.18;;;;;;;;;;3583737;40;20041;-64
2021/07/10 10:19:21;;;;;;;7.47;6.18;;;;;;;;;;3582894;40;20039;-64
2021/07/10 10:21:51;;;;;;;8.50;7.03;;;;;;;;;;3583270;40;20125;-64
2021/07/10 10:24:17;;;;;;;6.50;5.70;;;;;;;;;;3583272;40;20060;-62
2021/07/10 10:26:44;;;;;;;7.82;6.00;;;;;;;;;;3582894;40;20041;-63
2021/07/10 10:29:10;;;;;;;8.30;6.10;;;;;;;;;;3574196;40;20037;-62
2021/07/10 10:31:37;;;;;;;9.73;6.00;;;;;;;;;;3584110;40;20033;-63
2021/07/10 10:34:04;;;;;;;9.45;5.75;;;;;;;;;;3582093;40;20048;-63
2021/07/10 10:36:30;;;;;;;6.30;5.40;;;;;;;;;;3582760;40;21913;-63
2021/07/10 10:38:56;;;;;;;7.18;6.00;;;;;;;;;;3584022;40;20029;-62
2021/07/10 10:41:22;;;;;;;6.28;5.60;;;;;;;;;;3584243;40;20025;-62
2021/07/10 10:43:48;;;;;;;6.47;5.22;;;;;;;;;;3581622;40;20028;-63
2021/07/10 10:46:15;;;;;;;8.55;4.55;;;;;;;;;;3583738;40;20039;-62
2021/07/10 10:48:43;;;;;;;7.63;4.97;;;;;;;;;;3581324;40;20063;-63
2021/07/10 10:51:34;;;;;;;6.20;4.60;;;;;;;;;;3584570;40;20315;-64
2021/07/10 10:54:23;;;;;;;7.03;4.97;;;;;;;;;;3570460;40;20387;-63
2021/07/10 10:56:48;;;;;;;5.82;4.45;;;;;;;;;;3583965;40;20045;-65
2021/07/10 10:59:33;;;;;;;8.50;4.82;;;;;;;;;;3583063;40;20114;-63
2021/07/10 11:01:58;;;;;;;5.78;5.18;;;;;;;;;;3581571;40;20488;-64
2021/07/10 11:04:45;;;;;;;6.95;5.13;;;;;;;;;;3583242;40;20052;-63
2021/07/10 11:07:35;;;;;;;7.78;6.25;;;;;;;;;;3583431;40;20040;-64
2021/07/10 11:10:15;;;;;;;6.25;4.95;;;;;;;;;;3584605;40;20049;-64
2021/07/10 11:12:53;;;;;;;;;;;;;;;;;;3574788;40;20276;-64
2021/07/10 11:15:27;;;;;;;6.22;4.57;;;;;;;;;;3584806;40;19968;-64
2021/07/10 11:18:02;;;;;;;6.72;4.57;;;;;;;;;;3582093;40;20098;-62
2021/07/10 11:20:46;;;;;;;6.35;4.63;;;;;;;;;;3583608;40;20068;-64
2021/07/10 11:23:33;;;;;;;6.97;4.80;;;;;;;;;;3583359;40;20033;-64
2021/07/10 11:26:09;;;;;;;6.07;4.60;;;;;;;;;;3581811;40;20055;-63
2021/07/10 11:28:50;;;;;;;7.50;5.25;;;;;;;;;;3580207;40;20348;-65
2021/07/10 11:31:20;;;;;;;9.40;5.30;;;;;;;;;;3582625;40;20048;-63
2021/07/10 11:34:05;;;;;;;5.80;5.00;;;;;;;;;;3584982;40;20447;-63
2021/07/10 11:36:31;;;;;;;9.25;4.57;;;;;;;;;;3581699;40;20044;-63
2021/07/10 11:38:57;;;;;;;8.43;4.32;;;;;;;;;;3582076;40;20362;-63
2021/07/10 11:41:34;;;;;;;6.65;4.57;;;;;;;;;;3582910;40;20036;-63
2021/07/10 11:44:15;;;;;;;6.22;4.75;;;;;;;;;;3576382;40;20045;-63
2021/07/10 11:46:56;;;;;;;8.52;5.47;;;;;;;;;;3582404;40;20048;-64
2021/07/10 11:49:37;;;;;;;7.00;4.85;;;;;;;;;;3581527;40;20028;-64
2021/07/10 11:52:18;;;;;;;7.75;5.68;;;;;;;;;;3583062;40;20037;-63
2021/07/10 11:54:53;;;;;;;6.50;4.90;;;;;;;;;;3582742;40;20041;-63
2021/07/10 11:57:21;;;;;;;8.55;4.45;;;;;;;;;;3577305;40;20396;-64
2021/07/10 11:59:48;;;;;;;7.85;4.78;;;;;;;;;;3579833;40;20037;-63
2021/07/10 12:02:26;;;;;;;6.57;4.85;;;;;;;;;;3581142;40;20039;-63
2021/07/10 12:05:22;;;;;;;5.35;4.32;;;;;;;;;;3581834;40;20029;-64
2021/07/10 12:07:56;;;;;;;6.45;5.07;;;;;;;;;;3573764;40;20380;-64
2021/07/10 12:10:27;;;;;;;10.20;5.15;;;;;;;;;;3578485;40;20307;-64
2021/07/10 12:12:58;;;;;;;8.32;4.20;;;;;;;;;;3580145;40;20284;-64
2021/07/10 12:15:33;;;;;;;5.53;4.38;;;;;;;;;;3581563;40;20051;-64
2021/07/10 12:18:04;;;;;;;7.03;5.00;;;;;;;;;;3579746;40;20406;-64
2021/07/10 12:20:42;;;;;;;5.60;4.68;;;;;;;;;;3580361;40;20114;-63
2021/07/10 12:23:29;;;;;;;6.22;4.63;;;;;;;;;;3578876;40;20047;-64
2021/07/10 12:26:04;;;;;;;4.93;4.28;;;;;;;;;;3579635;40;20423;-62
2021/07/10 12:28:34;;;;;;;7.53;5.93;;;;;;;;;;3580567;40;20076;-63
2021/07/10 12:31:03;;;;;;;6.68;4.75;;;;;;;;;;3570566;40;20044;-63
2021/07/10 12:33:41;;;;;;;5.75;4.03;;;;;;;;;;3580208;40;20386;-62
2021/07/10 12:36:16;;;;;;;8.77;5.50;;;;;;;;;;3581215;40;20061;-62
2021/07/10 12:38:55;;;;;;;6.10;4.40;;;;;;;;;;3581819;40;20039;-62
2021/07/10 12:41:28;;;;;;;6.10;4.93;;;;;;;;;;3580301;40;20903;-62
2021/07/10 12:44:05;;;;;;;6.68;4.72;;;;;;;;;;3579754;40;20087;-64
2021/07/10 12:47:06;;;;;;;6.15;4.32;;;;;;;;;;3580938;40;20270;-66
2021/07/10 12:49:34;;;;;;;6.82;4.40;;;;;;;;;;3559610;40;20041;-64
2021/07/10 12:52:01;;;;;;;5.00;4.13;;;;;;;;;;3580984;40;20359;-63
2021/07/10 12:54:37;;;;;;;5.30;4.20;;;;;;;;;;3581341;40;20138;-63
2021/07/10 12:57:27;;;;;;;5.65;3.75;;;;;;;;;;3580525;40;20439;-64
2021/07/10 13:00:03;;;;;;;5.65;4.10;;;;;;;;;;3581960;40;20041;-65
2021/07/10 13:02:34;;;;;;;5.75;4.18;;;;;;;;;;3581914;40;20064;-63
2021/07/10 13:05:12;;;;;;;7.15;6.35;;;;;;;;;;3579404;40;20069;-64
2021/07/10 13:07:37;;;;;;;5.25;4.22;;;;;;;;;;3579330;40;20117;-63
2021/07/10 13:10:04;;;;;;;6.25;4.43;;;;;;;;;;3581923;40;20040;-63
2021/07/10 13:13:00;;;;;;;5.45;4.28;;;;;;;;;;3582328;40;20423;-63
2021/07/10 13:15:28;;;;;;;6.57;4.43;;;;;;;;;;3582743;40;20404;-62
2021/07/10 13:18:04;;;;;;;10.55;4.05;;;;;;;;;;3581507;40;20044;-62
2021/07/10 13:20:31;;;;;;;6.40;4.30;;;;;;;;;;3583293;40;20043;-63
2021/07/10 13:22:57;;;;;;;5.00;3.55;;;;;;;;;;3580970;40;20044;-63
2021/07/10 13:25:32;;;;;;;7.38;4.55;;;;;;;;;;3580086;40;20044;-63
2021/07/10 13:27:57;;;;;;;4.45;3.50;;;;;;;;;;3580208;40;20033;-63
2021/07/10 13:30:23;;;;;;;5.70;3.72;;;;;;;;;;3580197;40;20430;-64
2021/07/10 13:32:55;;;;;;;7.28;4.25;;;;;;;;;;3583484;40;20036;-64
2021/07/10 13:35:25;;;;;;;5.60;4.63;;;;;;;;;;3582350;40;20053;-64
2021/07/10 13:37:51;;;;;;;6.20;4.85;;;;;;;;;;3583306;39;20403;-64
2021/07/10 13:40:22;;;;;;;5.20;3.60;;;;;;;;;;3583730;40;20049;-63
2021/07/10 13:42:59;;;;;;;5.40;3.92;;;;;;;;;;3582826;40;20045;-64
2021/07/10 13:45:26;;;;;;;5.53;3.55;;;;;;;;;;3584967;40;20028;-64
2021/07/10 13:48:12;;;;;;;5.38;4.03;;;;;;;;;;3583091;40;20056;-64
2021/07/10 13:50:39;;;;;;;4.18;3.60;;;;;;;;;;3581893;40;20073;-64
2021/07/10 13:53:15;;;;;;;4.85;4.32;;;;;;;;;;3582802;40;20056;-64
2021/07/10 13:55:43;;;;;;;7.68;4.13;;;;;;;;;;3582358;40;20377;-64
2021/07/10 13:58:29;;;;;;;4.90;4.05;;;;;;;;;;3582904;40;20029;-64
2021/07/10 14:00:56;;;;;;;7.20;3.60;;;;;;;;;;3582512;40;20048;-64
2021/07/10 14:03:22;;;;;;;4.60;3.58;;;;;;;;;;3582467;40;20028;-64
2021/07/10 14:05:48;;;;;;;4.60;3.58;;;;;;;;;;3582830;40;20041;-64
2021/07/10 14:08:19;;;;;;;5.03;4.10;;;;;;;;;;3582299;40;20059;-66
2021/07/10 14:10:52;;;;;;;5.13;3.80;;;;;;;;;;3583330;40;20024;-65
2021/07/10 14:13:27;;;;;;;4.75;3.55;;;;;;;;;;3582166;40;20037;-66
2021/07/10 14:15:55;;;;;;;4.88;3.47;;;;;;;;;;3570398;40;20037;-65
2021/07/10 14:18:21;;;;;;;6.38;4.20;;;;;;;;;;3582184;40;20147;-62
2021/07/10 14:20:51;;;;;;;4.85;3.55;;;;;;;;;;3582266;40;20051;-63
2021/07/10 14:23:24;;;;;;;8.02;4.13;;;;;;;;;;3583369;40;20025;-62
2021/07/10 14:25:50;;;;;;;4.22;3.10;;;;;;;;;;3583900;40;20024;-64
2021/07/10 14:28:16;;;;;;;5.57;4.05;;;;;;;;;;3585533;40;20044;-62
2021/07/10 14:30:42;;;;;;;5.43;3.83;;;;;;;;;;3583187;40;20355;-62
2021/07/10 14:33:08;;;;;;;4.47;3.08;;;;;;;;;;3581476;40;20048;-63
2021/07/10 14:35:34;;;;;;;4.78;3.50;;;;;;;;;;3582764;40;20084;-62
2021/07/10 14:38:01;;;;;;;6.45;3.45;;;;;;;;;;3581769;40;20047;-63
2021/07/10 14:40:31;;;;;;;6.25;3.88;;;;;;;;;;3582836;40;20033;-62
2021/07/10 14:42:57;;;;;;;4.82;3.20;;;;;;;;;;3582171;40;20041;-63